sensor_id;sensor_type;location;lat;lon;timestamp;pressure;altitude;pressure_sealevel;temperature;humidity
70323;BME280;57735;56.264;43.898;2022-09-16T00:00:35;99495.06;;;10.87;80.45
70323;BME280;57735;56.264;43.898;2022-09-16T00:03:06;99495.41;;;10.84;80.69
70323;BME280;57735;56.264;43.898;2022-09-16T00:05:44;99500.56;;;10.86;80.75
70323;BME280;57735;56.264;43.898;2022-09-16T00:08:15;99490.72;;;10.86;80.62
70323;BME280;57735;56.264;43.898;2022-09-16T00:10:47;99498.56;;;10.88;80.57
70323;BME280;57735;56.264;43.898;2022-09-16T00:13:20;99492.00;;;10.90;80.68
70323;BME280;57735;56.264;43.898;2022-09-16T00:15:51;99502.50;;;10.92;80.61
70323;BME280;57735;56.264;43.898;2022-09-16T00:18:22;99495.34;;;10.92;80.52
70323;BME280;57735;56.264;43.898;2022-09-16T00:20:53;99512.16;;;10.93;80.69
70323;BME280;57735;56.264;43.898;2022-09-16T00:23:24;99496.81;;;10.95;80.71
70323;BME280;57735;56.264;43.898;2022-09-16T00:25:55;99509.81;;;10.98;80.64
70323;BME280;57735;56.264;43.898;2022-09-16T00:28:26;99508.97;;;10.97;80.61
70323;BME280;57735;56.264;43.898;2022-09-16T00:31:00;99507.50;;;10.95;80.54
70323;BME280;57735;56.264;43.898;2022-09-16T00:33:31;99512.81;;;10.95;80.56
70323;BME280;57735;56.264;43.898;2022-09-16T00:36:13;99500.31;;;10.95;81.01
70323;BME280;57735;56.264;43.898;2022-09-16T00:38:49;99509.97;;;10.96;80.85
70323;BME280;57735;56.264;43.898;2022-09-16T00:41:27;99497.13;;;11.00;80.66
70323;BME280;57735;56.264;43.898;2022-09-16T00:44:05;99504.78;;;11.03;80.68
70323;BME280;57735;56.264;43.898;2022-09-16T00:46:40;99498.25;;;11.05;80.70
70323;BME280;57735;56.264;43.898;2022-09-16T00:49:27;99497.22;;;11.06;80.60
70323;BME280;57735;56.264;43.898;2022-09-16T00:52:01;99503.38;;;11.07;80.63
70323;BME280;57735;56.264;43.898;2022-09-16T00:54:34;99495.38;;;11.07;80.68
70323;BME280;57735;56.264;43.898;2022-09-16T00:57:07;99501.38;;;11.09;80.81
70323;BME280;57735;56.264;43.898;2022-09-16T00:59:45;99501.19;;;11.10;80.72
70323;BME280;57735;56.264;43.898;2022-09-16T01:02:19;99500.03;;;11.13;80.67
70323;BME280;57735;56.264;43.898;2022-09-16T01:04:58;99505.00;;;11.16;80.72
70323;BME280;57735;56.264;43.898;2022-09-16T01:07:35;99498.47;;;11.18;80.71
70323;BME280;57735;56.264;43.898;2022-09-16T01:10:10;99501.81;;;11.21;80.43
70323;BME280;57735;56.264;43.898;2022-09-16T01:12:44;99504.47;;;11.21;80.39
70323;BME280;57735;56.264;43.898;2022-09-16T01:15:16;99504.31;;;11.22;80.60
70323;BME280;57735;56.264;43.898;2022-09-16T01:29:21;99509.81;;;11.21;80.45
70323;BME280;57735;56.264;43.898;2022-09-16T01:34:49;99505.66;;;11.18;80.49
70323;BME280;57735;56.264;43.898;2022-09-16T01:37:32;99510.16;;;11.17;80.55
70323;BME280;57735;56.264;43.898;2022-09-16T01:40:30;99508.31;;;11.18;80.49
70323;BME280;57735;56.264;43.898;2022-09-16T01:43:19;99510.16;;;11.17;80.49
70323;BME280;57735;56.264;43.898;2022-09-16T01:48:50;99504.00;;;11.17;80.44
70323;BME280;57735;56.264;43.898;2022-09-16T01:54:31;99509.84;;;11.12;80.68
70323;BME280;57735;56.264;43.898;2022-09-16T01:57:09;99505.19;;;11.14;80.83
70323;BME280;57735;56.264;43.898;2022-09-16T01:59:50;99505.00;;;11.16;80.59
70323;BME280;57735;56.264;43.898;2022-09-16T02:02:28;99507.66;;;11.16;80.74
70323;BME280;57735;56.264;43.898;2022-09-16T02:05:04;99503.16;;;11.16;80.65
70323;BME280;57735;56.264;43.898;2022-09-16T02:07:40;99503.16;;;11.16;80.73
70323;BME280;57735;56.264;43.898;2022-09-16T02:10:26;99502.50;;;11.14;80.94
70323;BME280;57735;56.264;43.898;2022-09-16T02:13:17;99503.16;;;11.16;81.01
70323;BME280;57735;56.264;43.898;2022-09-16T02:15:51;99504.81;;;11.17;81.09
70323;BME280;57735;56.264;43.898;2022-09-16T02:18:27;99502.16;;;11.17;80.81
70323;BME280;57735;56.264;43.898;2022-09-16T02:21:02;99507.31;;;11.19;80.99
70323;BME280;57735;56.264;43.898;2022-09-16T02:23:41;99501.97;;;11.19;80.89
70323;BME280;57735;56.264;43.898;2022-09-16T02:26:18;99503.81;;;11.18;80.75
70323;BME280;57735;56.264;43.898;2022-09-16T02:28:51;99512.00;;;11.17;80.87
70323;BME280;57735;56.264;43.898;2022-09-16T02:31:31;99507.84;;;11.14;80.90
70323;BME280;57735;56.264;43.898;2022-09-16T02:34:11;99505.53;;;11.11;80.73
70323;BME280;57735;56.264;43.898;2022-09-16T02:36:53;99498.06;;;11.07;80.92
70323;BME280;57735;56.264;43.898;2022-09-16T02:39:29;99502.75;;;11.05;80.97
70323;BME280;57735;56.264;43.898;2022-09-16T02:42:01;99504.78;;;11.03;80.96
70323;BME280;57735;56.264;43.898;2022-09-16T02:44:33;99509.47;;;11.01;81.12
70323;BME280;57735;56.264;43.898;2022-09-16T02:47:14;99506.78;;;11.01;81.10
70323;BME280;57735;56.264;43.898;2022-09-16T02:56:33;99516.09;;;11.05;81.02
70323;BME280;57735;56.264;43.898;2022-09-16T02:58:33;99514.06;;;11.07;81.05
70323;BME280;57735;56.264;43.898;2022-09-16T03:01:04;99512.88;;;11.09;80.92
70323;BME280;57735;56.264;43.898;2022-09-16T03:03:36;99514.38;;;11.12;81.15
70323;BME280;57735;56.264;43.898;2022-09-16T03:06:22;99514.38;;;11.12;81.00
70323;BME280;57735;56.264;43.898;2022-09-16T03:08:58;99511.34;;;11.15;81.00
70323;BME280;57735;56.264;43.898;2022-09-16T03:17:27;99529.41;;;11.28;80.71
70323;BME280;57735;56.264;43.898;2022-09-16T03:28:19;99528.88;;;11.32;80.74
70323;BME280;57735;56.264;43.898;2022-09-16T03:31:05;99531.72;;;11.31;80.71
70323;BME280;57735;56.264;43.898;2022-09-16T03:33:50;99541.56;;;11.30;80.80
70323;BME280;57735;56.264;43.898;2022-09-16T03:36:27;99540.56;;;11.31;80.87
70323;BME280;57735;56.264;43.898;2022-09-16T03:39:00;99537.06;;;11.31;80.78
70323;BME280;57735;56.264;43.898;2022-09-16T03:41:33;99551.72;;;11.35;80.80
70323;BME280;57735;56.264;43.898;2022-09-16T03:44:06;99540.50;;;11.39;80.61
70323;BME280;57735;56.264;43.898;2022-09-16T03:46:37;99540.44;;;11.47;80.35
70323;BME280;57735;56.264;43.898;2022-09-16T03:49:09;99551.88;;;11.56;80.00
70323;BME280;57735;56.264;43.898;2022-09-16T03:51:40;99542.94;;;11.64;79.81
70323;BME280;57735;56.264;43.898;2022-09-16T03:54:13;99558.25;;;11.70;79.47
70323;BME280;57735;56.264;43.898;2022-09-16T03:56:44;99560.38;;;11.74;79.36
70323;BME280;57735;56.264;43.898;2022-09-16T03:59:15;99554.53;;;11.79;79.06
70323;BME280;57735;56.264;43.898;2022-09-16T04:01:46;99558.50;;;11.83;78.82
70323;BME280;57735;56.264;43.898;2022-09-16T04:04:17;99549.94;;;11.87;78.82
70323;BME280;57735;56.264;43.898;2022-09-16T04:06:48;99542.38;;;11.91;78.52
70323;BME280;57735;56.264;43.898;2022-09-16T04:09:19;99554.34;;;11.95;78.59
70323;BME280;57735;56.264;43.898;2022-09-16T04:11:52;99545.63;;;12.01;78.45
70323;BME280;57735;56.264;43.898;2022-09-16T04:14:23;99545.69;;;12.08;77.99
70323;BME280;57735;56.264;43.898;2022-09-16T04:16:54;99547.66;;;12.14;77.52
70323;BME280;57735;56.264;43.898;2022-09-16T04:19:28;99552.91;;;12.22;77.61
70323;BME280;57735;56.264;43.898;2022-09-16T04:21:59;99558.69;;;12.26;77.17
70323;BME280;57735;56.264;43.898;2022-09-16T04:24:32;99555.94;;;12.34;77.03
70323;BME280;57735;56.264;43.898;2022-09-16T04:27:10;99551.72;;;12.39;76.71
70323;BME280;57735;56.264;43.898;2022-09-16T04:29:41;99565.97;;;12.46;76.44
70323;BME280;57735;56.264;43.898;2022-09-16T04:32:12;99559.72;;;12.54;76.11
70323;BME280;57735;56.264;43.898;2022-09-16T04:34:43;99562.91;;;12.64;75.74
70323;BME280;57735;56.264;43.898;2022-09-16T04:37:14;99566.69;;;12.70;75.38
70323;BME280;57735;56.264;43.898;2022-09-16T04:39:45;99552.19;;;12.79;75.21
70323;BME280;57735;56.264;43.898;2022-09-16T04:42:16;99552.91;;;12.87;75.07
70323;BME280;57735;56.264;43.898;2022-09-16T04:44:47;99563.31;;;12.97;74.79
70323;BME280;57735;56.264;43.898;2022-09-16T04:47:18;99551.03;;;13.03;74.51
70323;BME280;57735;56.264;43.898;2022-09-16T04:49:48;99550.84;;;13.04;73.88
70323;BME280;57735;56.264;43.898;2022-09-16T04:52:19;99549.88;;;13.12;73.98
70323;BME280;57735;56.264;43.898;2022-09-16T04:54:50;99553.50;;;13.19;73.46
70323;BME280;57735;56.264;43.898;2022-09-16T04:57:21;99559.91;;;13.24;73.17
70323;BME280;57735;56.264;43.898;2022-09-16T04:59:52;99553.78;;;13.31;72.99
70323;BME280;57735;56.264;43.898;2022-09-16T05:02:25;99559.78;;;13.33;72.87
70323;BME280;57735;56.264;43.898;2022-09-16T05:04:56;99557.94;;;13.33;72.40
70323;BME280;57735;56.264;43.898;2022-09-16T05:07:28;99555.53;;;13.38;72.52
70323;BME280;57735;56.264;43.898;2022-09-16T05:09:59;99555.91;;;13.35;72.27
70323;BME280;57735;56.264;43.898;2022-09-16T05:12:34;99549.53;;;13.36;72.21
70323;BME280;57735;56.264;43.898;2022-09-16T05:15:07;99566.88;;;13.40;72.00
70323;BME280;57735;56.264;43.898;2022-09-16T05:17:38;99556.16;;;13.40;71.68
70323;BME280;57735;56.264;43.898;2022-09-16T05:20:09;99557.59;;;13.43;72.05
70323;BME280;57735;56.264;43.898;2022-09-16T05:22:40;99556.91;;;13.55;71.79
70323;BME280;57735;56.264;43.898;2022-09-16T05:25:14;99557.88;;;13.76;71.13
70323;BME280;57735;56.264;43.898;2022-09-16T05:27:45;99561.19;;;13.78;70.75
70323;BME280;57735;56.264;43.898;2022-09-16T05:30:16;99558.53;;;13.78;70.45
70323;BME280;57735;56.264;43.898;2022-09-16T05:32:52;99549.25;;;13.74;70.69
70323;BME280;57735;56.264;43.898;2022-09-16T05:35:27;99556.03;;;13.76;70.38
70323;BME280;57735;56.264;43.898;2022-09-16T05:37:58;99555.00;;;13.71;70.26
70323;BME280;57735;56.264;43.898;2022-09-16T05:40:29;99554.38;;;13.75;70.64
70323;BME280;57735;56.264;43.898;2022-09-16T05:43:00;99553.97;;;13.72;70.31
70323;BME280;57735;56.264;43.898;2022-09-16T05:45:31;99559.31;;;13.72;70.71
70323;BME280;57735;56.264;43.898;2022-09-16T05:48:02;99566.56;;;13.78;70.58
70323;BME280;57735;56.264;43.898;2022-09-16T05:50:32;99561.66;;;13.81;69.98
70323;BME280;57735;56.264;43.898;2022-09-16T05:53:03;99550.34;;;13.86;70.23
70323;BME280;57735;56.264;43.898;2022-09-16T05:55:34;99545.09;;;13.99;70.02
70323;BME280;57735;56.264;43.898;2022-09-16T05:58:05;99536.97;;;14.20;69.72
70323;BME280;57735;56.264;43.898;2022-09-16T06:00:35;99547.78;;;14.33;69.15
70323;BME280;57735;56.264;43.898;2022-09-16T06:03:06;99543.75;;;14.51;68.82
70323;BME280;57735;56.264;43.898;2022-09-16T06:05:37;99546.06;;;14.60;68.65
70323;BME280;57735;56.264;43.898;2022-09-16T06:08:08;99553.53;;;14.65;68.71
70323;BME280;57735;56.264;43.898;2022-09-16T06:10:39;99549.22;;;14.71;68.44
70323;BME280;57735;56.264;43.898;2022-09-16T06:13:10;99546.53;;;14.77;67.76
70323;BME280;57735;56.264;43.898;2022-09-16T06:16:02;99552.34;;;14.81;67.63
70323;BME280;57735;56.264;43.898;2022-09-16T06:18:36;99550.53;;;14.94;67.76
70323;BME280;57735;56.264;43.898;2022-09-16T06:21:09;99554.88;;;15.09;67.60
70323;BME280;57735;56.264;43.898;2022-09-16T06:23:41;99554.09;;;15.28;67.33
70323;BME280;57735;56.264;43.898;2022-09-16T06:26:30;99553.06;;;15.29;66.31
70323;BME280;57735;56.264;43.898;2022-09-16T06:29:01;99550.19;;;15.24;66.20
70323;BME280;57735;56.264;43.898;2022-09-16T06:31:32;99550.78;;;15.26;66.71
70323;BME280;57735;56.264;43.898;2022-09-16T06:34:07;99551.47;;;15.41;66.66
70323;BME280;57735;56.264;43.898;2022-09-16T06:36:41;99541.31;;;15.43;65.80
70323;BME280;57735;56.264;43.898;2022-09-16T06:39:13;99539.66;;;15.42;66.05
70323;BME280;57735;56.264;43.898;2022-09-16T06:41:44;99535.13;;;15.43;65.95
70323;BME280;57735;56.264;43.898;2022-09-16T06:44:15;99543.81;;;15.38;65.71
70323;BME280;57735;56.264;43.898;2022-09-16T06:46:46;99549.56;;;15.28;65.83
70323;BME280;57735;56.264;43.898;2022-09-16T06:49:17;99550.78;;;15.26;65.64
70323;BME280;57735;56.264;43.898;2022-09-16T06:51:48;99548.75;;;15.21;65.89
70323;BME280;57735;56.264;43.898;2022-09-16T06:54:21;99553.69;;;15.18;65.91
70323;BME280;57735;56.264;43.898;2022-09-16T06:56:54;99554.72;;;15.17;65.82
70323;BME280;57735;56.264;43.898;2022-09-16T06:59:25;99545.84;;;15.23;65.45
70323;BME280;57735;56.264;43.898;2022-09-16T07:02:00;99543.19;;;15.23;65.22
70323;BME280;57735;56.264;43.898;2022-09-16T07:04:31;99549.56;;;15.28;65.34
70323;BME280;57735;56.264;43.898;2022-09-16T07:07:02;99553.50;;;15.32;64.66
70323;BME280;57735;56.264;43.898;2022-09-16T07:09:33;99553.50;;;15.32;64.22
70323;BME280;57735;56.264;43.898;2022-09-16T07:12:05;99548.78;;;15.41;64.01
70323;BME280;57735;56.264;43.898;2022-09-16T07:14:38;99542.97;;;15.44;63.80
70323;BME280;57735;56.264;43.898;2022-09-16T07:17:09;99549.81;;;15.40;63.68
70323;BME280;57735;56.264;43.898;2022-09-16T07:19:40;99552.91;;;15.37;63.33
70323;BME280;57735;56.264;43.898;2022-09-16T07:22:12;99553.09;;;15.42;63.62
70323;BME280;57735;56.264;43.898;2022-09-16T07:24:43;99555.59;;;15.37;63.23
70323;BME280;57735;56.264;43.898;2022-09-16T07:27:16;99553.91;;;15.43;64.05
70323;BME280;57735;56.264;43.898;2022-09-16T07:29:47;99551.66;;;15.46;64.12
70323;BME280;57735;56.264;43.898;2022-09-16T07:32:17;99549.59;;;15.55;64.12
70323;BME280;57735;56.264;43.898;2022-09-16T07:34:48;99546.56;;;15.58;63.31
70323;BME280;57735;56.264;43.898;2022-09-16T07:37:28;99543.84;;;15.64;63.26
70323;BME280;57735;56.264;43.898;2022-09-16T07:40:02;99537.84;;;15.69;63.23
70323;BME280;57735;56.264;43.898;2022-09-16T07:42:34;99540.31;;;15.84;63.56
70323;BME280;57735;56.264;43.898;2022-09-16T07:45:05;99538.44;;;15.97;62.92
70323;BME280;57735;56.264;43.898;2022-09-16T07:47:39;99534.91;;;16.10;62.97
70323;BME280;57735;56.264;43.898;2022-09-16T07:50:09;99544.63;;;16.11;62.33
70323;BME280;57735;56.264;43.898;2022-09-16T07:52:40;99536.59;;;16.04;61.93
70323;BME280;57735;56.264;43.898;2022-09-16T07:55:15;99542.78;;;16.05;61.76
70323;BME280;57735;56.264;43.898;2022-09-16T07:57:47;99537.63;;;16.03;61.36
70323;BME280;57735;56.264;43.898;2022-09-16T08:00:19;99532.22;;;16.10;61.40
70323;BME280;57735;56.264;43.898;2022-09-16T08:02:55;99534.06;;;16.16;60.88
70323;BME280;57735;56.264;43.898;2022-09-16T08:05:26;99530.13;;;16.25;60.95
70323;BME280;57735;56.264;43.898;2022-09-16T08:07:57;99523.06;;;16.37;60.96
70323;BME280;57735;56.264;43.898;2022-09-16T08:10:28;99525.06;;;16.49;60.96
70323;BME280;57735;56.264;43.898;2022-09-16T08:12:59;99523.81;;;16.58;60.73
70323;BME280;57735;56.264;43.898;2022-09-16T08:15:33;99526.50;;;16.64;60.38
70323;BME280;57735;56.264;43.898;2022-09-16T08:18:03;99519.84;;;16.73;60.34
70323;BME280;57735;56.264;43.898;2022-09-16T08:20:36;99514.00;;;16.77;59.68
70323;BME280;57735;56.264;43.898;2022-09-16T08:23:07;99509.91;;;16.74;59.28
70323;BME280;57735;56.264;43.898;2022-09-16T08:25:40;99509.44;;;16.77;58.89
70323;BME280;57735;56.264;43.898;2022-09-16T08:28:15;99509.44;;;16.77;59.30
70323;BME280;57735;56.264;43.898;2022-09-16T08:30:47;99497.81;;;16.83;58.79
70323;BME280;57735;56.264;43.898;2022-09-16T08:33:18;99501.75;;;16.87;58.42
70323;BME280;57735;56.264;43.898;2022-09-16T08:35:59;99502.56;;;16.88;58.65
70323;BME280;57735;56.264;43.898;2022-09-16T08:38:31;99494.94;;;16.78;57.43
70323;BME280;57735;56.264;43.898;2022-09-16T08:44:15;99497.22;;;16.81;57.65
70323;BME280;57735;56.264;43.898;2022-09-16T08:49:35;99499.78;;;16.63;57.78
70323;BME280;57735;56.264;43.898;2022-09-16T08:52:14;99495.25;;;16.57;57.64
70323;BME280;57735;56.264;43.898;2022-09-16T08:54:55;99496.91;;;16.58;57.89
70323;BME280;57735;56.264;43.898;2022-09-16T08:57:33;99498.94;;;16.69;57.97
70323;BME280;57735;56.264;43.898;2022-09-16T09:00:13;99495.97;;;16.84;57.84
70323;BME280;57735;56.264;43.898;2022-09-16T09:09:05;99495.41;;;17.06;56.80
70323;BME280;57735;56.264;43.898;2022-09-16T09:12:13;99492.19;;;16.91;57.99
70323;BME280;57735;56.264;43.898;2022-09-16T09:17:51;99494.31;;;17.14;56.56
70323;BME280;57735;56.264;43.898;2022-09-16T09:20:30;99490.66;;;17.08;56.47
70323;BME280;57735;56.264;43.898;2022-09-16T09:23:22;99501.53;;;17.20;56.94
70323;BME280;57735;56.264;43.898;2022-09-16T09:26:07;99491.28;;;17.35;56.73
70323;BME280;57735;56.264;43.898;2022-09-16T09:29:02;99493.63;;;17.50;57.02
70323;BME280;57735;56.264;43.898;2022-09-16T09:31:49;99492.16;;;17.54;55.09
70323;BME280;57735;56.264;43.898;2022-09-16T09:40:24;99486.88;;;17.41;54.32
70323;BME280;57735;56.264;43.898;2022-09-16T09:43:38;99486.97;;;17.28;55.25
70323;BME280;57735;56.264;43.898;2022-09-16T09:46:24;99488.06;;;17.20;55.90
70323;BME280;57735;56.264;43.898;2022-09-16T09:49:22;99487.53;;;17.36;54.94
70323;BME280;57735;56.264;43.898;2022-09-16T09:52:11;99488.47;;;17.49;54.53
70323;BME280;57735;56.264;43.898;2022-09-16T09:54:48;99494.16;;;17.65;54.75
70323;BME280;57735;56.264;43.898;2022-09-16T09:57:53;99497.66;;;17.66;53.69
70323;BME280;57735;56.264;43.898;2022-09-16T10:00:41;99499.81;;;17.57;53.54
70323;BME280;57735;56.264;43.898;2022-09-16T10:03:16;99496.66;;;17.60;53.91
70323;BME280;57735;56.264;43.898;2022-09-16T10:05:47;99497.06;;;17.64;53.78
70323;BME280;57735;56.264;43.898;2022-09-16T10:08:45;99480.72;;;17.84;53.17
70323;BME280;57735;56.264;43.898;2022-09-16T10:11:20;99486.88;;;17.91;52.84
70323;BME280;57735;56.264;43.898;2022-09-16T10:13:53;99480.13;;;18.00;52.91
70323;BME280;57735;56.264;43.898;2022-09-16T10:16:35;99473.31;;;18.16;52.24
70323;BME280;57735;56.264;43.898;2022-09-16T10:19:16;99479.69;;;18.39;52.29
70323;BME280;57735;56.264;43.898;2022-09-16T10:22:06;99483.56;;;18.43;51.75
70323;BME280;57735;56.264;43.898;2022-09-16T10:24:40;99478.03;;;18.38;51.36
70323;BME280;57735;56.264;43.898;2022-09-16T10:27:29;99478.16;;;18.43;51.39
70323;BME280;57735;56.264;43.898;2022-09-16T10:30:17;99481.34;;;18.40;50.89
70323;BME280;57735;56.264;43.898;2022-09-16T10:33:04;99473.03;;;18.42;50.16
70323;BME280;57735;56.264;43.898;2022-09-16T10:35:38;99469.94;;;18.38;49.93
70323;BME280;57735;56.264;43.898;2022-09-16T10:40:52;99453.75;;;18.20;50.63
70323;BME280;57735;56.264;43.898;2022-09-16T10:43:24;99453.97;;;18.19;51.02
70323;BME280;57735;56.264;43.898;2022-09-16T10:45:56;99460.38;;;18.24;51.33
70323;BME280;57735;56.264;43.898;2022-09-16T10:48:29;99460.03;;;18.32;51.16
70323;BME280;57735;56.264;43.898;2022-09-16T10:51:04;99468.28;;;18.37;50.78
70323;BME280;57735;56.264;43.898;2022-09-16T10:53:37;99463.13;;;18.36;50.53
70323;BME280;57735;56.264;43.898;2022-09-16T10:56:17;99451.88;;;18.39;51.17
70323;BME280;57735;56.264;43.898;2022-09-16T10:58:59;99447.06;;;18.41;50.21
70323;BME280;57735;56.264;43.898;2022-09-16T11:13:56;99439.22;;;17.85;51.85
70323;BME280;57735;56.264;43.898;2022-09-16T11:28:52;99423.19;;;18.26;50.54
70323;BME280;57735;56.264;43.898;2022-09-16T11:33:44;99419.16;;;18.47;50.04
70323;BME280;57735;56.264;43.898;2022-09-16T11:45:33;99410.41;;;18.81;49.48
70323;BME280;57735;56.264;43.898;2022-09-16T11:48:17;99403.31;;;18.69;49.31
70323;BME280;57735;56.264;43.898;2022-09-16T11:59:25;99396.44;;;18.55;50.22
70323;BME280;57735;56.264;43.898;2022-09-16T12:02:02;99395.84;;;18.53;50.57
70323;BME280;57735;56.264;43.898;2022-09-16T12:04:54;99396.06;;;18.51;50.83
70323;BME280;57735;56.264;43.898;2022-09-16T12:13:21;99388.25;;;18.31;50.85
70323;BME280;57735;56.264;43.898;2022-09-16T12:16:00;99393.22;;;18.16;51.10
70323;BME280;57735;56.264;43.898;2022-09-16T12:18:37;99395.91;;;17.98;51.44
70323;BME280;57735;56.264;43.898;2022-09-16T12:24:15;99388.81;;;17.67;51.96
70323;BME280;57735;56.264;43.898;2022-09-16T12:26:55;99393.72;;;17.52;52.41
70323;BME280;57735;56.264;43.898;2022-09-16T12:35:41;99385.44;;;17.28;52.67
70323;BME280;57735;56.264;43.898;2022-09-16T12:38:18;99383.63;;;17.22;52.91
70323;BME280;57735;56.264;43.898;2022-09-16T12:43:54;99382.38;;;17.25;53.03
70323;BME280;57735;56.264;43.898;2022-09-16T12:46:47;99385.63;;;17.52;52.37
70323;BME280;57735;56.264;43.898;2022-09-16T13:00:16;99377.63;;;18.18;48.71
70323;BME280;57735;56.264;43.898;2022-09-16T13:03:14;99373.28;;;18.17;47.88
70323;BME280;57735;56.264;43.898;2022-09-16T13:05:49;99367.88;;;18.17;48.17
70323;BME280;57735;56.264;43.898;2022-09-16T13:08:26;99379.72;;;18.16;48.30
70323;BME280;57735;56.264;43.898;2022-09-16T13:11:04;99374.94;;;18.18;48.35
70323;BME280;57735;56.264;43.898;2022-09-16T13:13:47;99371.03;;;18.14;48.06
70323;BME280;57735;56.264;43.898;2022-09-16T13:16:32;99363.66;;;18.09;48.03
70323;BME280;57735;56.264;43.898;2022-09-16T13:22:08;99370.50;;;17.75;49.07
70323;BME280;57735;56.264;43.898;2022-09-16T13:24:47;99364.13;;;17.63;49.05
70323;BME280;57735;56.264;43.898;2022-09-16T13:27:29;99363.75;;;17.60;49.89
70323;BME280;57735;56.264;43.898;2022-09-16T13:35:34;99357.56;;;17.59;50.58
70323;BME280;57735;56.264;43.898;2022-09-16T13:41:00;99349.00;;;17.44;50.91
70323;BME280;57735;56.264;43.898;2022-09-16T13:46:13;99355.28;;;17.20;51.71
70323;BME280;57735;56.264;43.898;2022-09-16T13:49:17;99346.63;;;17.11;52.19
70323;BME280;57735;56.264;43.898;2022-09-16T13:51:50;99356.44;;;17.05;51.89
70323;BME280;57735;56.264;43.898;2022-09-16T13:54:28;99345.31;;;16.95;52.92
70323;BME280;57735;56.264;43.898;2022-09-16T14:00:30;99345.25;;;16.77;53.20
70323;BME280;57735;56.264;43.898;2022-09-16T14:14:03;99335.94;;;16.48;53.36
70323;BME280;57735;56.264;43.898;2022-09-16T14:16:40;99333.44;;;16.47;53.81
70323;BME280;57735;56.264;43.898;2022-09-16T14:22:12;99338.69;;;16.42;54.29
70323;BME280;57735;56.264;43.898;2022-09-16T14:24:45;99336.56;;;16.44;54.34
70323;BME280;57735;56.264;43.898;2022-09-16T14:27:30;99346.25;;;16.51;53.69
70323;BME280;57735;56.264;43.898;2022-09-16T14:30:14;99335.47;;;16.58;53.67
70323;BME280;57735;56.264;43.898;2022-09-16T14:32:47;99344.13;;;16.60;53.72
70323;BME280;57735;56.264;43.898;2022-09-16T14:35:23;99344.94;;;16.60;53.87
70323;BME280;57735;56.264;43.898;2022-09-16T14:37:59;99326.94;;;16.61;54.02
70323;BME280;57735;56.264;43.898;2022-09-16T14:40:31;99334.84;;;16.56;54.17
70323;BME280;57735;56.264;43.898;2022-09-16T14:43:07;99343.34;;;16.53;54.37
70323;BME280;57735;56.264;43.898;2022-09-16T14:45:44;99332.84;;;16.45;54.38
70323;BME280;57735;56.264;43.898;2022-09-16T14:48:18;99326.09;;;16.35;54.76
70323;BME280;57735;56.264;43.898;2022-09-16T14:50:50;99330.94;;;16.20;55.25
70323;BME280;57735;56.264;43.898;2022-09-16T14:53:32;99340.72;;;16.08;55.37
70323;BME280;57735;56.264;43.898;2022-09-16T14:56:17;99340.13;;;15.99;55.72
70323;BME280;57735;56.264;43.898;2022-09-16T14:58:50;99336.22;;;15.95;55.94
70323;BME280;57735;56.264;43.898;2022-09-16T15:01:26;99335.03;;;15.91;56.17
70323;BME280;57735;56.264;43.898;2022-09-16T15:04:06;99335.25;;;15.83;56.19
70323;BME280;57735;56.264;43.898;2022-09-16T15:06:44;99344.16;;;15.77;56.49
70323;BME280;57735;56.264;43.898;2022-09-16T15:09:25;99344.59;;;15.67;56.64
70323;BME280;57735;56.264;43.898;2022-09-16T15:12:02;99344.19;;;15.64;56.73
70323;BME280;57735;56.264;43.898;2022-09-16T15:14:36;99338.41;;;15.60;57.07
70323;BME280;57735;56.264;43.898;2022-09-16T15:17:08;99337.59;;;15.60;57.05
70323;BME280;57735;56.264;43.898;2022-09-16T15:19:39;99333.50;;;15.57;57.37
70323;BME280;57735;56.264;43.898;2022-09-16T15:22:13;99333.06;;;15.54;57.49
70323;BME280;57735;56.264;43.898;2022-09-16T15:24:46;99335.94;;;15.52;57.28
70323;BME280;57735;56.264;43.898;2022-09-16T15:27:21;99333.69;;;15.49;57.54
70323;BME280;57735;56.264;43.898;2022-09-16T15:29:55;99337.59;;;15.47;57.72
70323;BME280;57735;56.264;43.898;2022-09-16T15:32:28;99328.56;;;15.41;57.81
70323;BME280;57735;56.264;43.898;2022-09-16T15:35:28;99325.88;;;15.41;57.71
70323;BME280;57735;56.264;43.898;2022-09-16T15:38:11;99319.44;;;15.42;57.58
70323;BME280;57735;56.264;43.898;2022-09-16T15:40:42;99323.59;;;15.38;57.92
70323;BME280;57735;56.264;43.898;2022-09-16T15:43:23;99319.06;;;15.32;58.14
70323;BME280;57735;56.264;43.898;2022-09-16T15:46:16;99316.38;;;15.25;58.36
70323;BME280;57735;56.264;43.898;2022-09-16T15:48:56;99318.66;;;15.22;58.41
70323;BME280;57735;56.264;43.898;2022-09-16T15:51:31;99321.97;;;15.17;58.59
70323;BME280;57735;56.264;43.898;2022-09-16T15:54:17;99325.69;;;15.16;58.78
70323;BME280;57735;56.264;43.898;2022-09-16T15:57:02;99328.78;;;15.13;58.98
70323;BME280;57735;56.264;43.898;2022-09-16T15:59:42;99331.69;;;15.12;59.13
70323;BME280;57735;56.264;43.898;2022-09-16T16:05:20;99330.25;;;15.16;59.12
70323;BME280;57735;56.264;43.898;2022-09-16T16:07:53;99331.88;;;15.17;59.17
70323;BME280;57735;56.264;43.898;2022-09-16T16:10:29;99311.25;;;15.17;59.09
70323;BME280;57735;56.264;43.898;2022-09-16T16:13:01;99307.31;;;15.20;59.09
70323;BME280;57735;56.264;43.898;2022-09-16T16:15:36;99305.47;;;15.20;59.02
70323;BME280;57735;56.264;43.898;2022-09-16T16:18:07;99296.16;;;15.23;58.76
70323;BME280;57735;56.264;43.898;2022-09-16T16:20:40;99305.88;;;15.24;58.74
70323;BME280;57735;56.264;43.898;2022-09-16T16:23:14;99293.28;;;15.24;59.07
70323;BME280;57735;56.264;43.898;2022-09-16T16:25:47;99284.97;;;15.26;58.90
70323;BME280;57735;56.264;43.898;2022-09-16T16:28:17;99293.03;;;15.26;58.63